首页
METAR-TAF:

METAR-TAF

机场 :

調布飛行場

調布, 日本

纬度: 35-40N, 经度: 139-32E, 海拔: 41米

当前天气观测

该预报发布于2小时和40分钟前的08:00 UTC
风速9节,风向南转南东
温度 33°C
湿度 63%
气压 1006 hPa
能见度10公里或以上
少量云层高于3000英尺
多云

METAR: RJTF 220800Z 16009KT 9999 FEW030 BKN/// 33/25 Q1006

时间: 19:40 (10:40 UTC)


TAF: 丢失

超过4000个机场的气象观测和天气预报(METAR&TAF报告)。

可查询的气象台以黄色和红色小点在地图上表示。

将鼠标移到小点上方,可查看气象台名称。

然后点击查看天气观测和预报。

如需切换地图:点击带黑十字的绿色按钮放大地图;点击带横线的绿色按钮缩小地图;或者点击绿色箭头查看邻近地区的地图。


METAR-TAF: